createdAt,value
2022-11-06T00:00:30.273Z,52.76
2022-11-06T00:02:59.648Z,52.73
2022-11-06T00:05:46.509Z,52.23
2022-11-06T00:08:13.937Z,52.47
2022-11-06T00:10:41.439Z,52.41
2022-11-06T00:13:08.567Z,52.34
2022-11-06T00:15:35.805Z,52.87
2022-11-06T00:18:02.709Z,52.81
2022-11-06T00:20:29.980Z,52.55
2022-11-06T00:22:57.010Z,52.35
2022-11-06T00:25:24.038Z,52.60
2022-11-06T00:27:51.206Z,52.43
2022-11-06T00:30:25.083Z,52.69
2022-11-06T00:32:52.577Z,52.81
2022-11-06T00:35:19.438Z,53.19
2022-11-06T00:37:48.125Z,52.46
2022-11-06T00:40:15.067Z,53.13
2022-11-06T00:42:42.066Z,52.70
2022-11-06T00:45:09.953Z,53.34
2022-11-06T00:47:37.115Z,53.46
2022-11-06T00:50:04.864Z,52.65
2022-11-06T00:52:31.892Z,53.73
2022-11-06T00:54:58.938Z,54.00
2022-11-06T00:57:25.938Z,53.95
2022-11-06T00:59:55.119Z,54.19
2022-11-06T01:02:22.621Z,53.37
2022-11-06T01:04:49.619Z,53.81
2022-11-06T01:07:16.669Z,53.38
2022-11-06T01:09:43.671Z,53.67
2022-11-06T01:12:13.730Z,53.24
2022-11-06T01:14:42.273Z,53.12
2022-11-06T01:17:09.443Z,52.56
2022-11-06T01:19:36.353Z,52.51
2022-11-06T01:22:03.326Z,52.86
2022-11-06T01:24:30.391Z,52.53
2022-11-06T01:27:24.940Z,53.64
2022-11-06T01:29:45.627Z,53.10
2022-11-06T01:32:13.062Z,53.28
2022-11-06T01:34:40.329Z,53.03
2022-11-06T01:37:11.701Z,53.19
2022-11-06T01:39:41.832Z,53.14
2022-11-06T01:42:12.036Z,53.10
2022-11-06T01:44:44.588Z,53.37
2022-11-06T01:47:25.533Z,53.86
2022-11-06T01:49:57.601Z,53.34
2022-11-06T01:52:27.209Z,53.13
2022-11-06T01:54:59.741Z,53.12
2022-11-06T01:57:26.753Z,53.20
2022-11-06T01:59:55.551Z,53.10
2022-11-06T02:02:23.458Z,52.93
2022-11-06T02:04:50.646Z,52.75
2022-11-06T02:07:18.961Z,52.76
2022-11-06T02:09:45.910Z,52.33
2022-11-06T02:12:18.995Z,52.14
2022-11-06T02:15:04.842Z,52.28
2022-11-06T02:17:55.421Z,52.15
2022-11-06T02:20:37.327Z,52.09
2022-11-06T02:23:09.321Z,52.69
2022-11-06T02:26:04.177Z,52.27
2022-11-06T02:28:43.380Z,52.83
2022-11-06T02:31:14.226Z,52.31
2022-11-06T02:33:56.876Z,52.73
2022-11-06T02:36:30.337Z,52.33
2022-11-06T02:39:01.796Z,52.35
2022-11-06T02:41:33.794Z,52.74
2022-11-06T02:44:02.940Z,52.19
2022-11-06T02:46:38.593Z,52.33
2022-11-06T02:49:15.276Z,51.80
2022-11-06T02:51:56.299Z,52.01
2022-11-06T02:54:26.720Z,51.86
2022-11-06T02:56:56.250Z,52.17
2022-11-06T02:59:38.706Z,51.81
2022-11-06T03:02:10.552Z,51.94
2022-11-06T03:04:45.050Z,51.68
2022-11-06T03:07:16.351Z,51.83
2022-11-06T03:09:44.475Z,52.37
2022-11-06T03:12:14.184Z,52.75
2022-11-06T03:14:53.839Z,52.72
2022-11-06T03:17:38.481Z,52.92
2022-11-06T03:20:14.385Z,52.90
2022-11-06T03:22:49.826Z,54.44
2022-11-06T03:25:29.195Z,54.48
2022-11-06T03:28:05.953Z,54.52
2022-11-06T03:30:40.622Z,54.36
2022-11-06T03:33:18.951Z,54.12
2022-11-06T03:35:57.678Z,54.27
2022-11-06T03:38:50.803Z,53.79
2022-11-06T03:41:43.922Z,53.02
2022-11-06T03:44:18.067Z,53.25
2022-11-06T03:46:50.110Z,53.27
2022-11-06T03:49:24.456Z,53.15
2022-11-06T03:52:00.353Z,53.08
2022-11-06T03:54:32.431Z,52.76
2022-11-06T03:57:19.301Z,52.98
2022-11-06T03:59:56.145Z,52.73
2022-11-06T04:02:26.337Z,52.79
2022-11-06T04:05:03.320Z,52.55
2022-11-06T04:08:04.331Z,52.53
2022-11-06T04:10:51.418Z,52.67
2022-11-06T04:13:40.815Z,52.44
2022-11-06T04:16:09.958Z,53.02
2022-11-06T04:18:36.972Z,52.74
2022-11-06T04:21:21.982Z,52.76
2022-11-06T04:24:29.693Z,53.00
2022-11-06T04:27:14.672Z,52.67
2022-11-06T04:30:08.209Z,53.01
2022-11-06T04:33:02.359Z,52.63
2022-11-06T04:35:40.422Z,52.41
2022-11-06T04:38:36.102Z,52.57
2022-11-06T04:41:20.135Z,52.72
2022-11-06T04:44:00.391Z,52.85
2022-11-06T04:46:36.686Z,52.90
2022-11-06T04:49:06.980Z,52.75
2022-11-06T04:51:38.283Z,52.78
2022-11-06T04:54:09.184Z,52.59
2022-11-06T04:56:40.105Z,52.82
2022-11-06T04:59:15.703Z,52.52
2022-11-06T05:01:42.813Z,52.54
2022-11-06T05:04:11.552Z,52.57
2022-11-06T05:06:38.655Z,52.29
2022-11-06T05:09:05.741Z,52.85
2022-11-06T05:11:32.680Z,53.13
2022-11-06T05:13:59.585Z,52.96
2022-11-06T05:16:26.652Z,53.28
2022-11-06T05:18:53.621Z,53.33
2022-11-06T05:21:39.129Z,53.44
2022-11-06T05:24:06.711Z,53.17
2022-11-06T05:26:34.014Z,53.19
2022-11-06T05:29:01.079Z,53.60
2022-11-06T05:31:28.231Z,53.50
2022-11-06T05:33:55.245Z,53.59
2022-11-06T05:36:22.262Z,54.17
2022-11-06T05:38:49.241Z,54.16
2022-11-06T05:41:16.169Z,54.37
2022-11-06T05:43:43.457Z,54.29
2022-11-06T05:46:29.704Z,54.36
2022-11-06T05:48:57.625Z,54.29
2022-11-06T05:51:24.634Z,54.44
2022-11-06T05:53:51.489Z,54.53
2022-11-06T05:56:18.608Z,54.72
2022-11-06T05:58:45.542Z,54.45
2022-11-06T06:01:13.048Z,54.10
2022-11-06T06:03:40.057Z,54.15
2022-11-06T06:06:07.112Z,53.72
2022-11-06T06:08:34.099Z,53.86
2022-11-06T06:11:01.084Z,54.10
2022-11-06T06:13:27.969Z,53.75
2022-11-06T06:15:55.544Z,54.01
2022-11-06T06:18:22.549Z,53.93
2022-11-06T06:20:49.415Z,54.04
2022-11-06T06:23:16.295Z,53.98
2022-11-06T06:25:43.217Z,53.46
2022-11-06T06:28:10.304Z,53.68
2022-11-06T06:30:37.648Z,53.30
2022-11-06T06:33:06.398Z,53.64
2022-11-06T06:35:33.841Z,54.02
2022-11-06T06:38:00.963Z,54.05
2022-11-06T06:40:29.869Z,53.95
2022-11-06T06:42:57.886Z,53.66
2022-11-06T06:45:26.937Z,53.99
2022-11-06T06:47:53.866Z,55.09
2022-11-06T06:50:21.053Z,54.82
2022-11-06T06:52:48.045Z,55.00
2022-11-06T06:55:15.194Z,54.92
2022-11-06T06:57:42.201Z,55.29
2022-11-06T07:00:09.790Z,55.10
2022-11-06T07:02:36.809Z,54.98
2022-11-06T07:05:03.754Z,55.25
2022-11-06T07:07:31.917Z,54.85
2022-11-06T07:09:58.882Z,54.89
2022-11-06T07:12:25.928Z,54.42
2022-11-06T07:14:52.923Z,55.08
2022-11-06T07:17:19.806Z,54.96
2022-11-06T07:19:49.155Z,54.56
2022-11-06T07:22:16.186Z,54.27
2022-11-06T07:24:43.118Z,54.28
2022-11-06T07:27:10.110Z,54.44
2022-11-06T07:29:37.095Z,54.71
2022-11-06T07:32:04.252Z,54.27
2022-11-06T07:34:31.137Z,54.04
2022-11-06T07:36:58.158Z,53.78
2022-11-06T07:39:25.235Z,53.36
2022-11-06T07:41:52.368Z,53.64
2022-11-06T07:44:19.319Z,53.17
2022-11-06T07:46:46.198Z,53.16
2022-11-06T07:49:13.266Z,53.24
2022-11-06T07:51:40.225Z,52.94
2022-11-06T07:54:07.182Z,52.80
2022-11-06T07:56:34.414Z,53.11
2022-11-06T07:59:01.310Z,53.75
2022-11-06T08:01:28.459Z,53.78
2022-11-06T08:03:55.663Z,53.23
2022-11-06T08:06:26.250Z,53.42
2022-11-06T08:08:58.615Z,53.19
2022-11-06T08:11:26.141Z,53.54
2022-11-06T08:13:53.067Z,53.51
2022-11-06T08:16:20.252Z,52.99
2022-11-06T08:18:47.179Z,52.29
2022-11-06T08:21:14.190Z,52.38
2022-11-06T08:23:41.357Z,52.56
2022-11-06T08:26:08.501Z,53.09
2022-11-06T08:28:35.942Z,52.98
2022-11-06T08:31:09.707Z,52.85
2022-11-06T08:33:38.159Z,53.09
2022-11-06T08:36:06.844Z,53.25
2022-11-06T08:38:33.982Z,52.87
2022-11-06T08:41:08.428Z,52.69
2022-11-06T08:43:36.155Z,52.39
2022-11-06T08:46:04.490Z,53.09
2022-11-06T08:48:32.329Z,53.81
2022-11-06T08:50:59.210Z,54.28
2022-11-06T08:53:26.313Z,54.09
2022-11-06T08:55:53.290Z,54.21
2022-11-06T08:58:20.529Z,53.52
2022-11-06T09:00:47.530Z,53.96
2022-11-06T09:03:18.051Z,53.64
2022-11-06T09:05:46.063Z,54.12
2022-11-06T09:08:14.562Z,54.07
2022-11-06T09:10:43.005Z,53.57
2022-11-06T09:13:10.892Z,53.87
2022-11-06T09:15:39.257Z,54.09
2022-11-06T09:18:08.753Z,54.50
2022-11-06T09:20:36.336Z,54.96
2022-11-06T09:23:08.213Z,54.38
2022-11-06T09:25:35.214Z,53.87
2022-11-06T09:28:02.187Z,54.20
2022-11-06T09:30:31.435Z,54.63
2022-11-06T09:33:01.106Z,54.55
2022-11-06T09:35:30.100Z,54.45
2022-11-06T09:38:10.071Z,55.12
2022-11-06T09:40:47.059Z,54.87
2022-11-06T09:43:58.408Z,54.78
2022-11-06T09:46:24.645Z,54.36
2022-11-06T09:49:01.088Z,53.99
2022-11-06T09:51:39.050Z,55.02
2022-11-06T09:54:15.165Z,55.74
2022-11-06T09:56:43.888Z,55.54
2022-11-06T09:59:16.070Z,55.25
2022-11-06T10:02:10.116Z,55.72
2022-11-06T10:04:52.147Z,55.35
2022-11-06T10:07:33.530Z,54.87
2022-11-06T10:10:02.586Z,54.86
2022-11-06T10:12:51.602Z,55.20
2022-11-06T10:15:59.589Z,54.85
2022-11-06T10:18:47.750Z,54.31
2022-11-06T10:21:25.938Z,54.17
2022-11-06T10:24:28.144Z,53.62
2022-11-06T10:26:57.405Z,53.90
2022-11-06T10:29:47.912Z,53.48
2022-11-06T10:32:33.137Z,54.10
2022-11-06T10:35:03.090Z,53.49
2022-11-06T10:38:47.396Z,53.24
2022-11-06T10:41:24.678Z,53.84
2022-11-06T10:43:56.713Z,54.19
2022-11-06T10:46:39.275Z,53.96
2022-11-06T10:49:26.519Z,54.20
2022-11-06T10:52:21.418Z,53.90
2022-11-06T10:54:48.375Z,53.88
2022-11-06T10:57:18.112Z,54.34
2022-11-06T10:59:45.233Z,54.17
2022-11-06T11:02:56.308Z,54.10
2022-11-06T11:05:26.421Z,54.32
2022-11-06T11:07:55.210Z,53.68
2022-11-06T11:10:24.293Z,53.50
2022-11-06T11:12:53.943Z,53.30
2022-11-06T11:15:23.287Z,53.25
2022-11-06T11:18:12.232Z,53.71
2022-11-06T11:21:04.186Z,54.17
2022-11-06T11:23:31.969Z,54.27
2022-11-06T11:26:15.537Z,54.75
2022-11-06T11:28:42.562Z,54.26
2022-11-06T11:31:16.171Z,55.11
2022-11-06T11:33:55.402Z,54.53
2022-11-06T11:36:23.272Z,54.40
2022-11-06T11:38:51.745Z,54.66
2022-11-06T11:41:21.877Z,54.49
2022-11-06T11:44:25.384Z,55.11
2022-11-06T11:46:55.445Z,55.38
2022-11-06T11:49:33.627Z,54.98
2022-11-06T11:52:04.228Z,54.82
2022-11-06T11:54:35.219Z,55.61
2022-11-06T11:57:19.531Z,55.50
2022-11-06T11:59:48.294Z,55.96
2022-11-06T12:02:27.684Z,55.93
2022-11-06T12:04:59.874Z,55.95
2022-11-06T12:07:46.570Z,55.96
2022-11-06T12:10:39.276Z,55.97
2022-11-06T12:13:27.061Z,56.12
2022-11-06T12:16:26.629Z,55.80
2022-11-06T12:18:58.876Z,56.05
2022-11-06T12:21:39.258Z,55.20
2022-11-06T12:24:16.065Z,54.92
2022-11-06T12:27:02.498Z,54.90
2022-11-06T12:30:01.685Z,55.28
2022-11-06T12:32:40.739Z,55.40
2022-11-06T12:35:18.759Z,55.41
2022-11-06T12:37:58.991Z,55.20
2022-11-06T12:40:30.976Z,55.79
2022-11-06T12:43:13.178Z,55.77
2022-11-06T12:45:57.588Z,55.42
2022-11-06T12:48:27.395Z,55.58
2022-11-06T12:51:01.464Z,55.25
2022-11-06T12:53:46.784Z,55.57
2022-11-06T12:56:33.157Z,55.48
2022-11-06T12:59:16.115Z,55.81
2022-11-06T13:02:09.944Z,55.89
2022-11-06T13:04:42.564Z,55.69
2022-11-06T13:07:19.915Z,56.28
2022-11-06T13:10:09.405Z,56.18
2022-11-06T13:12:42.433Z,56.04
2022-11-06T13:15:09.505Z,55.84
2022-11-06T13:17:49.353Z,56.14
2022-11-06T13:20:20.011Z,55.87
2022-11-06T13:23:05.853Z,55.81
2022-11-06T13:25:53.814Z,55.63
2022-11-06T13:28:35.462Z,55.51
2022-11-06T13:31:06.557Z,56.37
2022-11-06T13:33:40.013Z,55.98
2022-11-06T13:36:08.212Z,56.31
2022-11-06T13:38:39.727Z,56.33
2022-11-06T13:41:13.980Z,56.34
2022-11-06T13:43:46.414Z,56.05
2022-11-06T13:46:31.634Z,56.56
2022-11-06T13:49:01.586Z,56.02
2022-11-06T13:51:59.086Z,56.60
2022-11-06T13:54:39.688Z,56.89
2022-11-06T13:57:40.352Z,57.15
2022-11-06T14:00:23.795Z,58.22
2022-11-06T14:03:06.099Z,57.65
2022-11-06T14:05:51.961Z,57.92
2022-11-06T14:08:42.613Z,57.17
2022-11-06T14:11:12.312Z,57.84
2022-11-06T14:13:40.285Z,57.16
2022-11-06T14:16:26.030Z,56.92
2022-11-06T14:19:07.871Z,57.88
2022-11-06T14:21:37.886Z,57.53
2022-11-06T14:24:28.677Z,57.26
2022-11-06T14:26:56.137Z,56.95
2022-11-06T14:29:26.099Z,56.60
2022-11-06T14:32:12.753Z,56.82
2022-11-06T14:34:41.902Z,56.65
2022-11-06T14:37:35.057Z,57.11
2022-11-06T14:40:04.524Z,57.18
2022-11-06T14:42:57.881Z,57.76
2022-11-06T14:45:25.042Z,57.53
2022-11-06T14:47:56.766Z,57.92
2022-11-06T14:50:32.818Z,57.64
2022-11-06T14:53:03.555Z,57.60
2022-11-06T14:55:42.352Z,57.66
2022-11-06T14:58:19.167Z,57.97
2022-11-06T15:01:22.692Z,57.64
2022-11-06T15:03:52.753Z,57.72
2022-11-06T15:06:19.786Z,58.11
2022-11-06T15:08:46.722Z,57.43
2022-11-06T15:11:29.025Z,57.69
2022-11-06T15:14:02.054Z,57.48
2022-11-06T15:16:40.717Z,57.20
2022-11-06T15:19:15.465Z,57.45
2022-11-06T15:21:54.664Z,57.66
2022-11-06T15:24:31.763Z,58.06
2022-11-06T15:27:06.934Z,57.67
2022-11-06T15:29:38.281Z,57.49
2022-11-06T15:32:19.776Z,57.43
2022-11-06T15:34:55.268Z,57.56
2022-11-06T15:37:30.338Z,57.08
2022-11-06T15:40:01.187Z,57.85
2022-11-06T15:42:34.689Z,57.75
2022-11-06T15:45:18.330Z,57.61
2022-11-06T15:47:59.037Z,57.76
2022-11-06T15:50:33.854Z,57.70
2022-11-06T15:53:22.173Z,57.24
2022-11-06T15:56:09.314Z,57.42
2022-11-06T15:58:38.836Z,57.59
2022-11-06T16:01:07.421Z,57.47
2022-11-06T16:04:01.101Z,58.51
2022-11-06T16:06:47.970Z,58.10
2022-11-06T16:09:26.225Z,58.87
2022-11-06T16:12:06.905Z,58.13
2022-11-06T16:14:49.924Z,58.32
2022-11-06T16:17:32.698Z,58.30
2022-11-06T16:20:04.228Z,58.17
2022-11-06T16:22:34.653Z,58.48
2022-11-06T16:25:04.594Z,58.56
2022-11-06T16:27:36.477Z,59.23
2022-11-06T16:30:04.817Z,59.21
2022-11-06T16:32:41.304Z,59.61
2022-11-06T16:35:35.499Z,59.44
2022-11-06T16:41:06.620Z,58.90
2022-11-06T16:43:33.889Z,58.54
2022-11-06T16:46:08.097Z,59.14
2022-11-06T16:48:40.182Z,58.81
2022-11-06T16:51:13.327Z,59.00
2022-11-06T16:53:58.669Z,58.83
2022-11-06T16:56:31.602Z,58.68
2022-11-06T16:59:06.414Z,58.84
2022-11-06T17:01:43.318Z,58.61
2022-11-06T17:04:21.424Z,58.07
2022-11-06T17:06:49.036Z,58.34
2022-11-06T17:09:34.098Z,58.48
2022-11-06T17:12:02.735Z,58.70
2022-11-06T17:14:31.264Z,58.87
2022-11-06T17:17:00.563Z,58.16
2022-11-06T17:19:28.966Z,58.14
2022-11-06T17:21:56.302Z,58.52
2022-11-06T17:24:38.820Z,58.70
2022-11-06T17:27:06.599Z,58.33
2022-11-06T17:29:36.685Z,58.37
2022-11-06T17:32:04.956Z,58.81
2022-11-06T17:34:32.104Z,59.13
2022-11-06T17:36:59.552Z,58.90
2022-11-06T17:39:26.909Z,58.95
2022-11-06T17:41:54.690Z,58.87
2022-11-06T17:44:22.558Z,58.90
2022-11-06T17:46:49.975Z,58.99
2022-11-06T17:53:25.381Z,58.09
2022-11-06T17:55:52.742Z,58.84
2022-11-06T17:58:20.425Z,58.98
2022-11-06T18:00:48.918Z,58.89
2022-11-06T18:03:19.804Z,58.83
2022-11-06T18:05:47.798Z,58.50
2022-11-06T18:08:15.453Z,58.84
2022-11-06T18:10:42.744Z,60.12
2022-11-06T18:13:09.928Z,59.69
2022-11-06T18:15:37.650Z,59.84
2022-11-06T18:18:04.872Z,59.70
2022-11-06T18:20:31.969Z,59.57
2022-11-06T18:22:58.824Z,60.06
2022-11-06T18:25:26.113Z,59.92
2022-11-06T18:27:53.163Z,59.18
2022-11-06T18:30:20.504Z,59.36
2022-11-06T18:32:47.640Z,59.63
2022-11-06T18:35:14.934Z,58.99
2022-11-06T18:37:42.165Z,59.31
2022-11-06T18:40:10.366Z,58.61
2022-11-06T18:42:37.368Z,58.58
2022-11-06T18:45:04.855Z,59.28
2022-11-06T18:47:32.138Z,59.40
2022-11-06T18:49:59.194Z,59.01
2022-11-06T18:52:51.743Z,58.93
2022-11-06T18:55:14.266Z,59.20
2022-11-06T18:57:41.456Z,58.83
2022-11-06T19:00:09.353Z,58.82
2022-11-06T19:02:37.470Z,58.79
2022-11-06T19:05:04.795Z,58.47
2022-11-06T19:07:31.905Z,58.34
2022-11-06T19:09:59.233Z,59.51
2022-11-06T19:12:28.691Z,58.56
2022-11-06T19:14:56.198Z,58.81
2022-11-06T19:17:23.449Z,58.92
2022-11-06T19:19:51.137Z,58.61
2022-11-06T19:22:18.313Z,59.15
2022-11-06T19:24:45.473Z,58.43
2022-11-06T19:27:12.384Z,58.95
2022-11-06T19:29:39.334Z,58.98
2022-11-06T19:32:06.261Z,59.23
2022-11-06T19:34:38.895Z,59.02
2022-11-06T19:37:06.587Z,59.02
2022-11-06T19:39:33.642Z,58.67
2022-11-06T19:42:01.193Z,58.59
2022-11-06T19:44:28.364Z,58.63
2022-11-06T19:46:55.478Z,57.95
2022-11-06T19:49:22.516Z,57.90
2022-11-06T19:51:49.483Z,57.84
2022-11-06T19:54:17.170Z,58.21
2022-11-06T19:57:27.114Z,57.69
2022-11-06T19:59:33.852Z,58.94
2022-11-06T20:02:00.879Z,59.21
2022-11-06T20:04:28.221Z,59.12
2022-11-06T20:06:55.193Z,58.39
2022-11-06T20:09:22.225Z,59.06
2022-11-06T20:11:51.731Z,58.73
2022-11-06T20:14:21.756Z,58.95
2022-11-06T20:16:50.136Z,58.39
2022-11-06T20:19:17.232Z,58.74
2022-11-06T20:21:44.408Z,58.99
2022-11-06T20:24:11.801Z,59.05
2022-11-06T20:26:39.010Z,59.20
2022-11-06T20:29:06.109Z,59.48
2022-11-06T20:31:33.923Z,59.24
2022-11-06T20:34:01.014Z,58.92
2022-11-06T20:36:30.949Z,59.46
2022-11-06T20:39:00.655Z,59.54
2022-11-06T20:41:29.593Z,59.87
2022-11-06T20:43:57.085Z,59.53
2022-11-06T20:46:25.159Z,59.41
2022-11-06T20:48:54.199Z,59.39
2022-11-06T20:51:24.740Z,59.46
2022-11-06T20:53:52.297Z,59.61
2022-11-06T20:56:21.760Z,59.14
2022-11-06T20:58:49.826Z,59.32
2022-11-06T21:01:22.608Z,58.57
2022-11-06T21:03:50.883Z,58.72
2022-11-06T21:06:20.203Z,58.65
2022-11-06T21:08:48.057Z,58.99
2022-11-06T21:11:18.782Z,58.58
2022-11-06T21:13:48.910Z,58.81
2022-11-06T21:16:17.335Z,59.22
2022-11-06T21:18:45.056Z,58.48
2022-11-06T21:21:15.444Z,58.63
2022-11-06T21:23:42.978Z,58.63
2022-11-06T21:26:19.051Z,58.80
2022-11-06T21:28:46.794Z,58.91
2022-11-06T21:31:16.682Z,58.89
2022-11-06T21:33:45.809Z,58.68
2022-11-06T21:36:21.644Z,58.49
2022-11-06T21:38:48.831Z,58.21
2022-11-06T21:41:22.499Z,58.65
2022-11-06T21:43:49.556Z,59.19
2022-11-06T21:46:18.245Z,59.10
2022-11-06T21:48:47.422Z,58.32
2022-11-06T21:51:19.496Z,58.56
2022-11-06T21:54:05.865Z,58.61
2022-11-06T21:56:33.500Z,58.77
2022-11-06T21:59:01.571Z,59.29
2022-11-06T22:01:29.561Z,58.59
2022-11-06T22:03:57.071Z,58.75
2022-11-06T22:06:25.704Z,58.98
2022-11-06T22:08:54.596Z,59.22
2022-11-06T22:11:25.742Z,59.02
2022-11-06T22:13:54.782Z,59.46
2022-11-06T22:16:25.869Z,59.57
2022-11-06T22:18:53.155Z,59.93
2022-11-06T22:21:26.074Z,60.36
2022-11-06T22:23:53.280Z,60.58
2022-11-06T22:26:23.196Z,60.60
2022-11-06T22:29:11.650Z,60.88
2022-11-06T22:31:38.885Z,61.65
2022-11-06T22:34:06.103Z,60.70
2022-11-06T22:36:33.958Z,61.37
2022-11-06T22:39:05.515Z,61.18
2022-11-06T22:41:32.769Z,61.37
2022-11-06T22:44:00.386Z,61.10
2022-11-06T22:46:28.465Z,61.67
2022-11-06T22:48:56.072Z,61.79
2022-11-06T22:51:25.902Z,61.91
2022-11-06T22:53:53.314Z,62.08
2022-11-06T22:56:22.420Z,61.94
2022-11-06T22:58:54.411Z,62.49
2022-11-06T23:01:26.490Z,62.96
2022-11-06T23:03:57.865Z,62.72
2022-11-06T23:06:25.720Z,63.10
2022-11-06T23:08:52.904Z,63.00
2022-11-06T23:11:21.629Z,63.80
2022-11-06T23:13:48.961Z,63.91
2022-11-06T23:16:39.148Z,63.62
2022-11-06T23:19:07.157Z,63.70
2022-11-06T23:21:34.135Z,64.10
2022-11-06T23:24:01.080Z,64.12
2022-11-06T23:26:28.219Z,64.28
2022-11-06T23:28:56.231Z,63.93
2022-11-06T23:31:23.211Z,64.42
2022-11-06T23:33:50.416Z,64.74
2022-11-06T23:36:18.010Z,64.14
2022-11-06T23:38:45.099Z,64.08
2022-11-06T23:41:33.929Z,63.81
2022-11-06T23:44:01.873Z,64.25
2022-11-06T23:46:33.577Z,64.16
2022-11-06T23:49:00.541Z,65.07
2022-11-06T23:51:28.289Z,64.11
2022-11-06T23:53:55.390Z,63.98
2022-11-06T23:56:22.414Z,63.47
2022-11-06T23:58:49.475Z,64.09
